sensor_id;sensor_type;location;lat;lon;timestamp;pressure;altitude;pressure_sealevel;temperature;humidity
9774;BME280;4926;42.670;23.316;2023-10-08T00:02:45;94939.50;;;14.68;52.52
9774;BME280;4926;42.670;23.316;2023-10-08T00:05:15;94936.50;;;14.69;52.61
9774;BME280;4926;42.670;23.316;2023-10-08T00:07:43;94934.75;;;14.51;52.71
9774;BME280;4926;42.670;23.316;2023-10-08T00:10:11;94932.88;;;14.51;52.56
9774;BME280;4926;42.670;23.316;2023-10-08T00:12:41;94930.59;;;14.45;52.94
9774;BME280;4926;42.670;23.316;2023-10-08T00:15:10;94915.88;;;14.34;53.51
9774;BME280;4926;42.670;23.316;2023-10-08T00:17:37;94925.75;;;14.47;53.00
9774;BME280;4926;42.670;23.316;2023-10-08T00:20:05;94929.72;;;14.49;52.38
9774;BME280;4926;42.670;23.316;2023-10-08T00:22:33;94922.06;;;14.57;52.59
9774;BME280;4926;42.670;23.316;2023-10-08T00:25:01;94917.19;;;14.59;51.77
9774;BME280;4926;42.670;23.316;2023-10-08T00:27:38;94910.84;;;14.54;51.93
9774;BME280;4926;42.670;23.316;2023-10-08T00:30:07;94912.28;;;14.38;52.59
9774;BME280;4926;42.670;23.316;2023-10-08T00:32:45;94906.78;;;14.43;52.18
9774;BME280;4926;42.670;23.316;2023-10-08T00:35:12;94918.44;;;14.39;52.75
9774;BME280;4926;42.670;23.316;2023-10-08T00:37:39;94921.41;;;14.37;52.69
9774;BME280;4926;42.670;23.316;2023-10-08T00:40:10;94916.75;;;14.43;52.08
9774;BME280;4926;42.670;23.316;2023-10-08T00:42:41;94910.47;;;14.47;52.32
9774;BME280;4926;42.670;23.316;2023-10-08T00:45:11;94914.88;;;14.30;52.37
9774;BME280;4926;42.670;23.316;2023-10-08T00:47:39;94913.28;;;14.29;52.31
9774;BME280;4926;42.670;23.316;2023-10-08T00:50:09;94901.97;;;14.18;52.57
9774;BME280;4926;42.670;23.316;2023-10-08T00:52:46;94907.03;;;14.20;52.43
9774;BME280;4926;42.670;23.316;2023-10-08T00:55:23;94903.38;;;14.02;52.74
9774;BME280;4926;42.670;23.316;2023-10-08T00:57:57;94896.53;;;13.96;53.25
9774;BME280;4926;42.670;23.316;2023-10-08T01:00:34;94888.53;;;13.83;53.45
9774;BME280;4926;42.670;23.316;2023-10-08T01:03:06;94904.19;;;13.89;53.79
9774;BME280;4926;42.670;23.316;2023-10-08T01:05:46;94904.09;;;13.81;54.77
9774;BME280;4926;42.670;23.316;2023-10-08T01:08:16;94912.72;;;13.64;55.48
9774;BME280;4926;42.670;23.316;2023-10-08T01:10:48;94911.13;;;13.63;55.39
9774;BME280;4926;42.670;23.316;2023-10-08T01:13:30;94906.16;;;13.43;56.74
9774;BME280;4926;42.670;23.316;2023-10-08T01:16:01;94911.31;;;13.53;56.30
9774;BME280;4926;42.670;23.316;2023-10-08T01:18:31;94899.81;;;13.39;57.04
9774;BME280;4926;42.670;23.316;2023-10-08T01:21:00;94909.91;;;13.42;57.58
9774;BME280;4926;42.670;23.316;2023-10-08T01:23:35;94902.47;;;13.39;57.52
9774;BME280;4926;42.670;23.316;2023-10-08T01:26:04;94904.63;;;13.23;57.89
9774;BME280;4926;42.670;23.316;2023-10-08T01:28:36;94900.00;;;13.29;58.00
9774;BME280;4926;42.670;23.316;2023-10-08T01:31:03;94902.31;;;13.03;57.87
9774;BME280;4926;42.670;23.316;2023-10-08T01:33:32;94905.91;;;12.94;58.26
9774;BME280;4926;42.670;23.316;2023-10-08T01:36:04;94897.69;;;12.90;59.08
9774;BME280;4926;42.670;23.316;2023-10-08T01:38:38;94915.41;;;13.00;59.08
9774;BME280;4926;42.670;23.316;2023-10-08T01:41:07;94920.16;;;13.08;59.06
9774;BME280;4926;42.670;23.316;2023-10-08T01:43:44;94914.88;;;13.03;58.18
9774;BME280;4926;42.670;23.316;2023-10-08T01:46:13;94910.25;;;13.08;57.78
9774;BME280;4926;42.670;23.316;2023-10-08T01:48:43;94908.56;;;13.12;57.10
9774;BME280;4926;42.670;23.316;2023-10-08T01:51:11;94900.19;;;13.19;57.02
9774;BME280;4926;42.670;23.316;2023-10-08T01:53:52;94903.06;;;13.36;56.59
9774;BME280;4926;42.670;23.316;2023-10-08T01:56:19;94913.19;;;13.39;56.00
9774;BME280;4926;42.670;23.316;2023-10-08T01:58:46;94899.22;;;13.42;56.02
9774;BME280;4926;42.670;23.316;2023-10-08T02:01:13;94906.81;;;13.35;55.81
9774;BME280;4926;42.670;23.316;2023-10-08T02:03:44;94908.94;;;13.38;56.46
9774;BME280;4926;42.670;23.316;2023-10-08T02:06:11;94902.16;;;13.27;56.18
9774;BME280;4926;42.670;23.316;2023-10-08T02:08:38;94909.13;;;13.41;56.50
9774;BME280;4926;42.670;23.316;2023-10-08T02:11:06;94910.91;;;13.32;56.81
9774;BME280;4926;42.670;23.316;2023-10-08T02:13:34;94900.19;;;13.19;57.11
9774;BME280;4926;42.670;23.316;2023-10-08T02:16:02;94903.25;;;12.94;58.06
9774;BME280;4926;42.670;23.316;2023-10-08T02:18:29;94907.53;;;12.76;58.08
9774;BME280;4926;42.670;23.316;2023-10-08T02:20:58;94906.25;;;12.55;58.37
9774;BME280;4926;42.670;23.316;2023-10-08T02:23:25;94898.69;;;12.44;58.83
9774;BME280;4926;42.670;23.316;2023-10-08T02:25:53;94909.72;;;12.37;58.78
9774;BME280;4926;42.670;23.316;2023-10-08T02:28:23;94908.94;;;12.37;59.15
9774;BME280;4926;42.670;23.316;2023-10-08T02:30:51;94907.56;;;12.20;59.48
9774;BME280;4926;42.670;23.316;2023-10-08T02:33:21;94907.41;;;12.12;59.87
9774;BME280;4926;42.670;23.316;2023-10-08T02:35:48;94889.06;;;12.05;60.52
9774;BME280;4926;42.670;23.316;2023-10-08T02:38:16;94892.91;;;11.99;61.18
9774;BME280;4926;42.670;23.316;2023-10-08T02:40:44;94896.53;;;12.08;60.94
9774;BME280;4926;42.670;23.316;2023-10-08T02:43:12;94902.38;;;12.10;60.66
9774;BME280;4926;42.670;23.316;2023-10-08T02:45:42;94887.44;;;12.09;61.21
9774;BME280;4926;42.670;23.316;2023-10-08T02:48:15;94902.84;;;12.12;61.06
9774;BME280;4926;42.670;23.316;2023-10-08T02:50:46;94900.28;;;12.26;60.68
9774;BME280;4926;42.670;23.316;2023-10-08T02:53:14;94907.84;;;12.38;60.64
9774;BME280;4926;42.670;23.316;2023-10-08T02:55:45;94898.13;;;12.47;60.72
9774;BME280;4926;42.670;23.316;2023-10-08T02:58:14;94895.88;;;12.54;60.45
9774;BME280;4926;42.670;23.316;2023-10-08T03:00:47;94905.81;;;12.67;60.45
9774;BME280;4926;42.670;23.316;2023-10-08T03:03:14;94912.59;;;12.78;60.19
9774;BME280;4926;42.670;23.316;2023-10-08T03:05:49;94915.97;;;12.83;59.30
9774;BME280;4926;42.670;23.316;2023-10-08T03:08:18;94908.09;;;12.92;59.81
9774;BME280;4926;42.670;23.316;2023-10-08T03:10:46;94902.41;;;12.80;60.54
9774;BME280;4926;42.670;23.316;2023-10-08T03:13:16;94904.56;;;12.78;60.82
9774;BME280;4926;42.670;23.316;2023-10-08T03:15:46;94909.50;;;12.71;60.78
9774;BME280;4926;42.670;23.316;2023-10-08T03:18:23;94905.31;;;12.65;61.37
9774;BME280;4926;42.670;23.316;2023-10-08T03:20:50;94913.56;;;12.68;61.32
9774;BME280;4926;42.670;23.316;2023-10-08T03:23:21;94903.13;;;12.67;61.43
9774;BME280;4926;42.670;23.316;2023-10-08T03:25:58;94894.44;;;12.61;61.01
9774;BME280;4926;42.670;23.316;2023-10-08T03:28:29;94899.41;;;12.68;61.27
9774;BME280;4926;42.670;23.316;2023-10-08T03:31:01;94891.53;;;12.58;61.89
9774;BME280;4926;42.670;23.316;2023-10-08T03:33:38;94894.06;;;12.49;61.59
9774;BME280;4926;42.670;23.316;2023-10-08T03:36:06;94892.94;;;12.37;62.69
9774;BME280;4926;42.670;23.316;2023-10-08T03:38:42;94892.63;;;12.57;62.18
9774;BME280;4926;42.670;23.316;2023-10-08T03:41:16;94893.25;;;12.67;61.37
9774;BME280;4926;42.670;23.316;2023-10-08T03:43:46;94887.94;;;12.81;61.04
9774;BME280;4926;42.670;23.316;2023-10-08T03:46:30;94892.56;;;12.94;60.54
9774;BME280;4926;42.670;23.316;2023-10-08T03:49:04;94878.91;;;12.95;60.42
9774;BME280;4926;42.670;23.316;2023-10-08T03:51:40;94883.31;;;13.05;60.35
9774;BME280;4926;42.670;23.316;2023-10-08T03:54:07;94875.97;;;13.10;60.07
9774;BME280;4926;42.670;23.316;2023-10-08T03:56:44;94873.16;;;13.20;59.19
9774;BME280;4926;42.670;23.316;2023-10-08T03:59:14;94874.44;;;13.23;58.77
9774;BME280;4926;42.670;23.316;2023-10-08T04:01:50;94873.66;;;13.22;58.78
9774;BME280;4926;42.670;23.316;2023-10-08T04:04:20;94878.00;;;13.00;59.54
9774;BME280;4926;42.670;23.316;2023-10-08T04:06:56;94872.34;;;12.88;61.16
9774;BME280;4926;42.670;23.316;2023-10-08T04:09:43;94863.50;;;12.74;62.01
9774;BME280;4926;42.670;23.316;2023-10-08T04:12:11;94867.13;;;12.64;62.71
9774;BME280;4926;42.670;23.316;2023-10-08T04:14:36;94871.34;;;12.52;62.78
9774;BME280;4926;42.670;23.316;2023-10-08T04:17:08;94871.13;;;12.48;63.55
9774;BME280;4926;42.670;23.316;2023-10-08T04:19:36;94873.63;;;12.58;62.04
9774;BME280;4926;42.670;23.316;2023-10-08T04:22:06;94876.53;;;12.43;62.17
9774;BME280;4926;42.670;23.316;2023-10-08T04:24:40;94869.97;;;12.35;62.65
9774;BME280;4926;42.670;23.316;2023-10-08T04:27:09;94865.88;;;12.43;62.39
9774;BME280;4926;42.670;23.316;2023-10-08T04:29:37;94871.03;;;12.53;62.41
9774;BME280;4926;42.670;23.316;2023-10-08T04:32:05;94863.25;;;12.57;62.41
9774;BME280;4926;42.670;23.316;2023-10-08T04:34:41;94868.72;;;12.65;62.25
9774;BME280;4926;42.670;23.316;2023-10-08T04:37:12;94859.56;;;12.53;63.35
9774;BME280;4926;42.670;23.316;2023-10-08T04:39:46;94874.94;;;12.61;62.82
9774;BME280;4926;42.670;23.316;2023-10-08T04:42:19;94880.41;;;12.69;62.45
9774;BME280;4926;42.670;23.316;2023-10-08T04:44:51;94879.91;;;12.67;62.68
9774;BME280;4926;42.670;23.316;2023-10-08T04:47:24;94882.19;;;12.74;62.65
9774;BME280;4926;42.670;23.316;2023-10-08T04:50:01;94884.25;;;12.45;64.40
9774;BME280;4926;42.670;23.316;2023-10-08T04:52:32;94886.34;;;12.48;64.19
9774;BME280;4926;42.670;23.316;2023-10-08T04:55:11;94886.03;;;12.68;63.15
9774;BME280;4926;42.670;23.316;2023-10-08T04:57:45;94885.66;;;12.74;63.12
9774;BME280;4926;42.670;23.316;2023-10-08T05:00:14;94879.09;;;12.67;62.79
9774;BME280;4926;42.670;23.316;2023-10-08T05:02:43;94883.53;;;12.58;63.53
9774;BME280;4926;42.670;23.316;2023-10-08T05:05:16;94891.38;;;12.49;63.91
9774;BME280;4926;42.670;23.316;2023-10-08T05:07:49;94894.72;;;12.41;64.50
9774;BME280;4926;42.670;23.316;2023-10-08T05:10:43;94899.91;;;12.32;65.05
9774;BME280;4926;42.670;23.316;2023-10-08T05:13:26;94898.34;;;12.31;65.64
9774;BME280;4926;42.670;23.316;2023-10-08T05:16:01;94881.38;;;12.22;64.71
9774;BME280;4926;42.670;23.316;2023-10-08T05:18:52;94894.66;;;12.27;65.41
9774;BME280;4926;42.670;23.316;2023-10-08T05:21:40;94896.81;;;12.25;65.30
9774;BME280;4926;42.670;23.316;2023-10-08T05:24:18;94900.94;;;12.37;65.46
9774;BME280;4926;42.670;23.316;2023-10-08T05:26:53;94897.75;;;12.34;64.46
9774;BME280;4926;42.670;23.316;2023-10-08T05:29:47;94902.44;;;12.43;65.21
9774;BME280;4926;42.670;23.316;2023-10-08T05:32:41;94905.38;;;12.60;65.34
9774;BME280;4926;42.670;23.316;2023-10-08T05:35:38;94914.25;;;12.74;64.78
9774;BME280;4926;42.670;23.316;2023-10-08T05:38:16;94903.22;;;12.80;63.87
9774;BME280;4926;42.670;23.316;2023-10-08T05:40:50;94909.66;;;12.93;62.97
9774;BME280;4926;42.670;23.316;2023-10-08T05:43:53;94902.66;;;12.97;61.82
9774;BME280;4926;42.670;23.316;2023-10-08T05:46:38;94901.53;;;13.03;61.99
9774;BME280;4926;42.670;23.316;2023-10-08T05:49:22;94907.41;;;13.00;61.82
9774;BME280;4926;42.670;23.316;2023-10-08T05:52:08;94922.22;;;13.11;61.81
9774;BME280;4926;42.670;23.316;2023-10-08T05:54:53;94917.03;;;13.33;61.40
9774;BME280;4926;42.670;23.316;2023-10-08T05:57:38;94911.41;;;13.48;60.77
9774;BME280;4926;42.670;23.316;2023-10-08T06:00:12;94913.50;;;13.65;59.89
9774;BME280;4926;42.670;23.316;2023-10-08T06:02:57;94907.97;;;13.75;59.07
9774;BME280;4926;42.670;23.316;2023-10-08T06:06:01;94915.78;;;13.85;59.04
9774;BME280;4926;42.670;23.316;2023-10-08T06:08:49;94914.69;;;13.99;58.59
9774;BME280;4926;42.670;23.316;2023-10-08T06:11:52;94902.38;;;14.12;58.22
9774;BME280;4926;42.670;23.316;2023-10-08T06:14:34;94903.97;;;14.26;58.31
9774;BME280;4926;42.670;23.316;2023-10-08T06:17:19;94900.94;;;14.41;58.25
9774;BME280;4926;42.670;23.316;2023-10-08T06:20:21;94897.38;;;14.82;58.03
9774;BME280;4926;42.670;23.316;2023-10-08T06:22:51;94891.22;;;15.12;57.50
9774;BME280;4926;42.670;23.316;2023-10-08T06:25:26;94878.47;;;15.39;56.55
9774;BME280;4926;42.670;23.316;2023-10-08T06:27:57;94888.88;;;15.72;55.41
9774;BME280;4926;42.670;23.316;2023-10-08T06:30:27;94882.97;;;15.92;54.57
9774;BME280;4926;42.670;23.316;2023-10-08T06:32:59;94886.19;;;15.72;54.18
9774;BME280;4926;42.670;23.316;2023-10-08T06:35:26;94890.53;;;15.50;54.89
9774;BME280;4926;42.670;23.316;2023-10-08T06:37:54;94890.41;;;15.64;54.46
9774;BME280;4926;42.670;23.316;2023-10-08T06:40:25;94895.44;;;15.57;54.86
9774;BME280;4926;42.670;23.316;2023-10-08T06:43:11;94882.00;;;15.88;54.02
9774;BME280;4926;42.670;23.316;2023-10-08T06:45:40;94876.69;;;16.22;53.11
9774;BME280;4926;42.670;23.316;2023-10-08T06:48:10;94872.50;;;16.63;52.56
9774;BME280;4926;42.670;23.316;2023-10-08T06:50:44;94871.34;;;16.99;51.30
9774;BME280;4926;42.670;23.316;2023-10-08T06:53:12;94866.84;;;17.45;50.50
9774;BME280;4926;42.670;23.316;2023-10-08T06:55:40;94859.72;;;17.87;49.86
9774;BME280;4926;42.670;23.316;2023-10-08T06:58:11;94855.06;;;18.25;48.65
9774;BME280;4926;42.670;23.316;2023-10-08T07:00:40;94860.09;;;18.76;47.53
9774;BME280;4926;42.670;23.316;2023-10-08T07:03:16;94851.72;;;19.23;46.95
9774;BME280;4926;42.670;23.316;2023-10-08T07:05:47;94840.38;;;19.62;46.19
9774;BME280;4926;42.670;23.316;2023-10-08T07:08:23;94830.56;;;20.06;45.20
9774;BME280;4926;42.670;23.316;2023-10-08T07:10:51;94827.94;;;20.45;44.14
9774;BME280;4926;42.670;23.316;2023-10-08T07:13:20;94828.09;;;20.76;43.66
9774;BME280;4926;42.670;23.316;2023-10-08T07:15:48;94820.44;;;21.06;42.75
9774;BME280;4926;42.670;23.316;2023-10-08T07:18:15;94816.28;;;21.40;42.47
9774;BME280;4926;42.670;23.316;2023-10-08T07:20:51;94811.75;;;21.75;41.71
9774;BME280;4926;42.670;23.316;2023-10-08T07:23:20;94812.13;;;22.04;40.74
9774;BME280;4926;42.670;23.316;2023-10-08T07:25:56;94786.06;;;22.00;40.50
9774;BME280;4926;42.670;23.316;2023-10-08T07:28:30;94801.97;;;22.36;40.33
9774;BME280;4926;42.670;23.316;2023-10-08T07:30:59;94785.06;;;22.58;40.07
9774;BME280;4926;42.670;23.316;2023-10-08T07:33:28;94778.03;;;22.95;39.79
9774;BME280;4926;42.670;23.316;2023-10-08T07:36:02;94772.28;;;23.39;38.70
9774;BME280;4926;42.670;23.316;2023-10-08T07:38:37;94767.56;;;23.58;38.02
9774;BME280;4926;42.670;23.316;2023-10-08T07:41:04;94751.16;;;23.51;38.34
9774;BME280;4926;42.670;23.316;2023-10-08T07:43:33;94762.84;;;23.33;38.28
9774;BME280;4926;42.670;23.316;2023-10-08T07:46:00;94762.84;;;23.33;38.26
9774;BME280;4926;42.670;23.316;2023-10-08T07:48:27;94752.28;;;23.08;38.95
9774;BME280;4926;42.670;23.316;2023-10-08T07:50:59;94747.53;;;23.44;38.18
9774;BME280;4926;42.670;23.316;2023-10-08T07:53:25;94744.09;;;23.73;37.32
9774;BME280;4926;42.670;23.316;2023-10-08T07:56:03;94738.53;;;24.14;36.48
9774;BME280;4926;42.670;23.316;2023-10-08T07:58:33;94715.22;;;24.43;35.00
9774;BME280;4926;42.670;23.316;2023-10-08T08:01:03;94718.59;;;24.96;34.82
9774;BME280;4926;42.670;23.316;2023-10-08T08:03:34;94641.66;;;24.36;31.68
9774;BME280;4926;42.670;23.316;2023-10-08T08:06:03;94688.34;;;24.71;33.54
9774;BME280;4926;42.670;23.316;2023-10-08T08:08:32;94685.34;;;25.20;31.12
9774;BME280;4926;42.670;23.316;2023-10-08T08:10:59;94682.16;;;25.14;31.26
9774;BME280;4926;42.670;23.316;2023-10-08T08:13:31;94677.09;;;25.53;30.26
9774;BME280;4926;42.670;23.316;2023-10-08T08:16:00;94659.88;;;25.46;30.49
9774;BME280;4926;42.670;23.316;2023-10-08T08:18:36;94674.66;;;25.41;30.69
9774;BME280;4926;42.670;23.316;2023-10-08T08:21:08;94680.22;;;25.55;29.88
9774;BME280;4926;42.670;23.316;2023-10-08T08:23:41;94678.53;;;25.37;29.76
9774;BME280;4926;42.670;23.316;2023-10-08T08:26:16;94676.66;;;25.48;30.00
9774;BME280;4926;42.670;23.316;2023-10-08T08:28:54;94656.53;;;25.63;30.06
9774;BME280;4926;42.670;23.316;2023-10-08T08:31:26;94670.56;;;25.65;30.08
9774;BME280;4926;42.670;23.316;2023-10-08T08:33:57;94663.28;;;25.86;29.46
9774;BME280;4926;42.670;23.316;2023-10-08T08:36:28;94664.06;;;25.87;29.91
9774;BME280;4926;42.670;23.316;2023-10-08T08:38:57;94661.25;;;25.25;30.43
9774;BME280;4926;42.670;23.316;2023-10-08T08:41:36;94655.63;;;25.04;30.75
9774;BME280;4926;42.670;23.316;2023-10-08T08:44:04;94666.38;;;24.24;31.32
9774;BME280;4926;42.670;23.316;2023-10-08T08:46:35;94667.84;;;24.18;31.46
9774;BME280;4926;42.670;23.316;2023-10-08T08:49:03;94666.28;;;24.17;31.73
9774;BME280;4926;42.670;23.316;2023-10-08T08:51:30;94655.50;;;24.24;31.75
9774;BME280;4926;42.670;23.316;2023-10-08T08:53:58;94663.19;;;24.18;31.91
9774;BME280;4926;42.670;23.316;2023-10-08T08:56:37;94663.91;;;24.12;32.09
9774;BME280;4926;42.670;23.316;2023-10-08T08:59:05;94671.22;;;24.08;32.23
9774;BME280;4926;42.670;23.316;2023-10-08T09:01:36;94666.44;;;23.72;32.34
9774;BME280;4926;42.670;23.316;2023-10-08T09:04:06;94653.81;;;23.60;32.67
9774;BME280;4926;42.670;23.316;2023-10-08T09:06:37;94647.16;;;23.84;32.55
9774;BME280;4926;42.670;23.316;2023-10-08T09:09:04;94652.84;;;24.64;32.46
9774;BME280;4926;42.670;23.316;2023-10-08T09:11:47;94656.66;;;24.89;31.54
9774;BME280;4926;42.670;23.316;2023-10-08T09:14:17;94648.38;;;24.79;31.54
9774;BME280;4926;42.670;23.316;2023-10-08T09:16:45;94641.59;;;25.02;31.27
9774;BME280;4926;42.670;23.316;2023-10-08T09:19:12;94638.34;;;25.88;30.56
9774;BME280;4926;42.670;23.316;2023-10-08T09:21:43;94632.38;;;26.40;30.09
9774;BME280;4926;42.670;23.316;2023-10-08T09:24:18;94623.50;;;26.57;29.73
9774;BME280;4926;42.670;23.316;2023-10-08T09:26:48;94627.78;;;26.58;29.46
9774;BME280;4926;42.670;23.316;2023-10-08T09:29:18;94625.50;;;26.67;29.63
9774;BME280;4926;42.670;23.316;2023-10-08T09:31:53;94617.78;;;27.32;29.37
9774;BME280;4926;42.670;23.316;2023-10-08T09:34:21;94622.81;;;27.94;28.40
9774;BME280;4926;42.670;23.316;2023-10-08T09:36:48;94610.66;;;28.02;27.90
9774;BME280;4926;42.670;23.316;2023-10-08T09:39:15;94611.50;;;27.64;27.97
9774;BME280;4926;42.670;23.316;2023-10-08T09:41:49;94613.34;;;28.16;27.91
9774;BME280;4926;42.670;23.316;2023-10-08T09:44:19;94607.94;;;28.02;27.85
9774;BME280;4926;42.670;23.316;2023-10-08T09:46:54;94609.16;;;27.62;28.35
9774;BME280;4926;42.670;23.316;2023-10-08T09:49:30;94589.59;;;27.92;28.02
9774;BME280;4926;42.670;23.316;2023-10-08T09:52:00;94602.06;;;27.82;28.13
9774;BME280;4926;42.670;23.316;2023-10-08T09:54:31;94597.38;;;27.90;27.76
9774;BME280;4926;42.670;23.316;2023-10-08T09:57:05;94586.00;;;28.05;28.05
9774;BME280;4926;42.670;23.316;2023-10-08T09:59:33;94599.63;;;28.23;28.07
9774;BME280;4926;42.670;23.316;2023-10-08T10:02:02;94587.94;;;28.12;27.93
9774;BME280;4926;42.670;23.316;2023-10-08T10:04:34;94592.72;;;27.83;27.96
9774;BME280;4926;42.670;23.316;2023-10-08T10:07:10;94579.78;;;27.80;28.34
9774;BME280;4926;42.670;23.316;2023-10-08T10:09:38;94585.31;;;27.56;28.17
9774;BME280;4926;42.670;23.316;2023-10-08T10:12:10;94572.44;;;27.14;28.93
9774;BME280;4926;42.670;23.316;2023-10-08T10:14:45;94582.97;;;26.98;29.18
9774;BME280;4926;42.670;23.316;2023-10-08T10:17:19;94579.88;;;27.17;28.93
9774;BME280;4926;42.670;23.316;2023-10-08T10:19:50;94584.16;;;27.00;29.02
9774;BME280;4926;42.670;23.316;2023-10-08T10:22:27;94575.97;;;27.25;29.30
9774;BME280;4926;42.670;23.316;2023-10-08T10:24:55;94571.16;;;27.89;28.19
9774;BME280;4926;42.670;23.316;2023-10-08T10:27:25;94562.97;;;27.82;28.50
9774;BME280;4926;42.670;23.316;2023-10-08T10:30:01;94553.31;;;27.31;29.05
9774;BME280;4926;42.670;23.316;2023-10-08T10:32:35;94559.97;;;27.06;29.16
9774;BME280;4926;42.670;23.316;2023-10-08T10:37:49;94562.97;;;26.41;30.02
9774;BME280;4926;42.670;23.316;2023-10-08T10:40:22;94548.88;;;26.25;30.71
9774;BME280;4926;42.670;23.316;2023-10-08T10:42:56;94565.16;;;26.00;30.97
9774;BME280;4926;42.670;23.316;2023-10-08T10:45:23;94562.03;;;26.02;31.51
9774;BME280;4926;42.670;23.316;2023-10-08T10:48:07;94569.56;;;25.47;31.96
9774;BME280;4926;42.670;23.316;2023-10-08T10:50:47;94565.03;;;24.71;32.95
9774;BME280;4926;42.670;23.316;2023-10-08T10:53:17;94570.47;;;24.34;33.72
9774;BME280;4926;42.670;23.316;2023-10-08T10:55:45;94562.47;;;24.11;34.00
9774;BME280;4926;42.670;23.316;2023-10-08T10:58:24;94566.53;;;23.95;34.43
9774;BME280;4926;42.670;23.316;2023-10-08T11:00:50;94573.09;;;23.94;34.78
9774;BME280;4926;42.670;23.316;2023-10-08T11:03:29;94575.03;;;23.93;34.45
9774;BME280;4926;42.670;23.316;2023-10-08T11:05:59;94555.00;;;24.05;34.55
9774;BME280;4926;42.670;23.316;2023-10-08T11:08:31;94555.31;;;24.33;34.25
9774;BME280;4926;42.670;23.316;2023-10-08T11:11:01;94551.72;;;24.66;34.50
9774;BME280;4926;42.670;23.316;2023-10-08T11:13:35;94549.63;;;24.89;33.88
9774;BME280;4926;42.670;23.316;2023-10-08T11:16:06;94551.31;;;25.07;33.77
9774;BME280;4926;42.670;23.316;2023-10-08T11:18:42;94555.22;;;25.06;34.04
9774;BME280;4926;42.670;23.316;2023-10-08T11:21:17;94538.78;;;24.92;33.88
9774;BME280;4926;42.670;23.316;2023-10-08T11:23:52;94544.97;;;24.89;34.05
9774;BME280;4926;42.670;23.316;2023-10-08T11:26:28;94538.47;;;25.04;33.77
9774;BME280;4926;42.670;23.316;2023-10-08T11:29:05;94533.53;;;25.20;34.08
9774;BME280;4926;42.670;23.316;2023-10-08T11:31:40;94526.91;;;25.86;33.27
9774;BME280;4926;42.670;23.316;2023-10-08T11:34:11;94527.72;;;25.97;33.29
9774;BME280;4926;42.670;23.316;2023-10-08T11:36:38;94530.75;;;25.75;33.21
9774;BME280;4926;42.670;23.316;2023-10-08T11:39:18;94526.78;;;25.62;33.83
9774;BME280;4926;42.670;23.316;2023-10-08T11:41:55;94538.25;;;25.30;34.46
9774;BME280;4926;42.670;23.316;2023-10-08T11:44:22;94531.56;;;25.14;34.45
9774;BME280;4926;42.670;23.316;2023-10-08T11:46:55;94537.56;;;24.90;34.64
9774;BME280;4926;42.670;23.316;2023-10-08T11:49:31;94533.59;;;24.77;34.69
9774;BME280;4926;42.670;23.316;2023-10-08T11:52:02;94542.72;;;24.58;35.02
9774;BME280;4926;42.670;23.316;2023-10-08T11:54:31;94537.75;;;24.67;34.98
9774;BME280;4926;42.670;23.316;2023-10-08T11:56:59;94539.91;;;24.51;35.39
9774;BME280;4926;42.670;23.316;2023-10-08T11:59:27;94544.06;;;24.35;35.50
9774;BME280;4926;42.670;23.316;2023-10-08T12:02:05;94542.06;;;24.28;35.82
9774;BME280;4926;42.670;23.316;2023-10-08T12:04:33;94528.03;;;24.26;35.60
9774;BME280;4926;42.670;23.316;2023-10-08T12:07:01;94531.81;;;24.18;35.84
9774;BME280;4926;42.670;23.316;2023-10-08T12:09:32;94530.97;;;24.10;35.88
9774;BME280;4926;42.670;23.316;2023-10-08T12:12:03;94524.75;;;24.10;36.07
9774;BME280;4926;42.670;23.316;2023-10-08T12:14:34;94525.56;;;24.14;36.01
9774;BME280;4926;42.670;23.316;2023-10-08T12:17:04;94530.25;;;24.17;36.01
9774;BME280;4926;42.670;23.316;2023-10-08T12:19:38;94530.38;;;24.27;36.04
9774;BME280;4926;42.670;23.316;2023-10-08T12:22:07;94534.44;;;24.48;35.55
9774;BME280;4926;42.670;23.316;2023-10-08T12:24:34;94524.56;;;24.69;35.64
9774;BME280;4926;42.670;23.316;2023-10-08T12:27:03;94546.69;;;24.68;35.54
9774;BME280;4926;42.670;23.316;2023-10-08T12:29:37;94546.59;;;24.57;35.86
9774;BME280;4926;42.670;23.316;2023-10-08T12:32:04;94538.81;;;24.56;35.87
9774;BME280;4926;42.670;23.316;2023-10-08T12:34:34;94535.19;;;24.45;36.02
9774;BME280;4926;42.670;23.316;2023-10-08T12:37:02;94526.91;;;24.30;36.38
9774;BME280;4926;42.670;23.316;2023-10-08T12:39:32;94527.13;;;24.15;36.63
9774;BME280;4926;42.670;23.316;2023-10-08T12:42:11;94524.03;;;24.16;36.30
9774;BME280;4926;42.670;23.316;2023-10-08T12:44:40;94530.41;;;24.31;36.34
9774;BME280;4926;42.670;23.316;2023-10-08T12:47:07;94547.84;;;24.63;36.11
9774;BME280;4926;42.670;23.316;2023-10-08T12:49:34;94529.16;;;24.65;35.91
9774;BME280;4926;42.670;23.316;2023-10-08T12:52:02;94527.75;;;24.78;35.86
9774;BME280;4926;42.670;23.316;2023-10-08T12:54:29;94527.72;;;24.75;35.92
9774;BME280;4926;42.670;23.316;2023-10-08T12:56:58;94529.88;;;24.59;36.24
9774;BME280;4926;42.670;23.316;2023-10-08T12:59:34;94530.59;;;24.49;36.19
9774;BME280;4926;42.670;23.316;2023-10-08T13:02:01;94528.09;;;24.33;36.63
9774;BME280;4926;42.670;23.316;2023-10-08T13:04:32;94517.91;;;24.26;36.59
9774;BME280;4926;42.670;23.316;2023-10-08T13:07:09;94527.59;;;24.20;36.61
9774;BME280;4926;42.670;23.316;2023-10-08T13:09:37;94508.66;;;24.31;36.62
9774;BME280;4926;42.670;23.316;2023-10-08T13:12:11;94512.63;;;24.44;36.29
9774;BME280;4926;42.670;23.316;2023-10-08T13:14:40;94511.97;;;24.54;36.24
9774;BME280;4926;42.670;23.316;2023-10-08T13:17:10;94502.28;;;24.60;36.00
9774;BME280;4926;42.670;23.316;2023-10-08T13:19:37;94506.91;;;24.53;35.95
9774;BME280;4926;42.670;23.316;2023-10-08T13:22:04;94496.34;;;24.48;36.13
9774;BME280;4926;42.670;23.316;2023-10-08T13:24:33;94500.91;;;24.33;36.42
9774;BME280;4926;42.670;23.316;2023-10-08T13:27:01;94493.72;;;24.18;36.41
9774;BME280;4926;42.670;23.316;2023-10-08T13:29:27;94502.06;;;23.99;36.69
9774;BME280;4926;42.670;23.316;2023-10-08T13:31:58;94502.00;;;23.95;36.69
9774;BME280;4926;42.670;23.316;2023-10-08T13:34:25;94489.19;;;24.29;36.41
9774;BME280;4926;42.670;23.316;2023-10-08T13:36:52;94491.91;;;24.69;35.84
9774;BME280;4926;42.670;23.316;2023-10-08T13:39:19;94484.25;;;24.85;35.48
9774;BME280;4926;42.670;23.316;2023-10-08T13:41:48;94498.38;;;25.01;35.46